Time;durP1;ratioP1;P1;durP2;ratioP2;P2;SDS_P1;SDS_P2;PMS_P1;PMS_P2;Temp;Humidity;BMP_temperature;BMP_pressure;BME280_temperature;BME280_humidity;BME280_pressure;Samples;Min_cycle;Max_cycle;Signal;HPM_P1;HPM_P2
2021/08/07 00:00:53;;;;;;;3.43;2.00;;;;;;;19.16;60.71;95934.53;5074010;28;20183;-68
2021/08/07 00:03:19;;;;;;;3.27;2.13;;;;;;;19.15;60.47;95930.28;5073807;28;20201;-67
2021/08/07 00:05:44;;;;;;;3.50;1.90;;;;;;;19.13;60.75;95924.41;5074009;28;20240;-68
2021/08/07 00:08:10;;;;;;;4.03;3.00;;;;;;;19.11;60.74;95936.28;5072629;28;20212;-68
2021/08/07 00:10:35;;;;;;;3.50;3.07;;;;;;;19.10;60.90;95937.34;5073098;28;20668;-68
2021/08/07 00:13:01;;;;;;;9.40;3.57;;;;;;;19.12;60.94;95937.91;5071253;28;20551;-67
2021/08/07 00:15:27;;;;;;;8.67;5.10;;;;;;;19.13;60.87;95929.72;5072328;28;20186;-67
2021/08/07 00:17:53;;;;;;;3.83;2.70;;;;;;;19.10;60.88;95922.22;5066773;28;20207;-67
2021/08/07 00:20:18;;;;;;;3.90;2.93;;;;;;;19.09;61.09;95920.63;5062439;28;20425;-67
2021/08/07 00:22:44;;;;;;;7.40;2.53;;;;;;;19.10;61.06;95921.41;5071793;28;20554;-66
2021/08/07 00:25:10;;;;;;;4.73;2.67;;;;;;;19.09;61.00;95909.22;5072495;28;20182;-66
2021/08/07 00:27:36;;;;;;;7.07;2.87;;;;;;;19.09;61.12;95906.56;5072868;28;20214;-68
2021/08/07 00:30:03;;;;;;;4.93;2.63;;;;;;;19.07;61.18;95900.66;5072177;28;21005;-68
2021/08/07 00:32:29;;;;;;;3.10;2.30;;;;;;;19.02;61.49;95907.50;5071164;28;20675;-67
2021/08/07 00:34:55;;;;;;;8.93;2.53;;;;;;;19.11;61.14;95913.22;5071169;28;20425;-67
2021/08/07 00:37:20;;;;;;;6.23;2.70;;;;;;;19.10;61.29;95916.91;5066969;28;20210;-68
2021/08/07 00:39:46;;;;;;;3.10;1.83;;;;;;;19.14;61.29;95910.09;5061220;28;20206;-67
2021/08/07 00:42:11;;;;;;;3.03;1.90;;;;;;;19.15;61.19;95917.00;5072254;28;20233;-67
2021/08/07 00:44:37;;;;;;;5.83;2.40;;;;;;;19.16;61.07;95912.50;5071734;28;20193;-69
2021/08/07 00:47:03;;;;;;;2.20;2.00;;;;;;;19.23;60.91;95904.38;5071088;28;20190;-69
2021/08/07 00:49:28;;;;;;;3.97;2.30;;;;;;;19.21;60.83;95898.50;5063247;28;20576;-68
2021/08/07 00:51:54;;;;;;;6.03;2.07;;;;;;;19.23;60.77;95894.56;5056391;28;20184;-67
2021/08/07 00:54:20;;;;;;;4.23;2.20;;;;;;;19.24;60.66;95900.69;5069736;28;20187;-69
2021/08/07 00:56:46;;;;;;;3.03;1.87;;;;;;;19.24;60.75;95906.78;5072275;28;20594;-67
2021/08/07 00:59:12;;;;;;;5.20;2.17;;;;;;;19.24;60.72;95906.00;5070507;28;20441;-67
2021/08/07 01:01:51;;;;;;;4.13;1.97;;;;;;;19.19;60.90;95901.41;5072174;28;20178;-67
2021/08/07 01:04:20;;;;;;;4.40;2.17;;;;;;;19.20;60.87;95895.06;5070400;28;20247;-68
2021/08/07 01:07:03;;;;;;;3.13;2.83;;;;;;;19.19;60.82;95888.94;5071866;28;20420;-67
2021/08/07 01:09:47;;;;;;;2.37;1.77;;;;;;;19.21;60.61;95890.53;5069993;28;20982;-69
2021/08/07 01:12:26;;;;;;;3.80;1.80;;;;;;;19.11;60.98;95897.28;5070880;28;20423;-67
2021/08/07 01:14:54;;;;;;;3.97;1.97;;;;;;;19.17;60.63;95891.00;5070511;28;20463;-67
2021/08/07 01:17:26;;;;;;;2.73;1.90;;;;;;;19.07;60.97;95888.19;5070467;28;20807;-68
2021/08/07 01:20:13;;;;;;;6.00;2.33;;;;;;;19.14;60.56;95886.22;5053277;28;20428;-68
2021/08/07 01:23:00;;;;;;;2.50;2.20;;;;;;;19.16;60.59;95872.69;5072081;28;20413;-68
2021/08/07 01:25:40;;;;;;;3.50;2.00;;;;;;;19.18;60.60;95875.91;5069960;28;20508;-68
2021/08/07 01:28:05;;;;;;;2.80;1.90;;;;;;;19.17;60.59;95874.28;5070706;28;20460;-69
2021/08/07 01:30:31;;;;;;;2.23;2.03;;;;;;;19.18;60.49;95876.69;5066159;28;20483;-67
2021/08/07 01:32:57;;;;;;;2.10;1.90;;;;;;;19.17;60.57;95869.78;5051223;28;20183;-68
2021/08/07 01:35:23;;;;;;;2.60;1.70;;;;;;;19.15;60.59;95873.72;5072379;28;20688;-66
2021/08/07 01:37:48;;;;;;;3.40;1.90;;;;;;;19.16;60.54;95867.38;5054517;28;20669;-69
2021/08/07 01:40:14;;;;;;;2.63;1.97;;;;;;;19.19;60.42;95864.25;5070029;28;20182;-69
2021/08/07 01:42:39;;;;;;;7.60;2.40;;;;;;;19.20;60.48;95865.84;5065837;28;20190;-68
2021/08/07 01:45:05;;;;;;;3.73;2.10;;;;;;;19.19;60.62;95857.06;5021724;28;20528;-68
2021/08/07 01:48:08;;;;;;;5.47;2.43;;;;;;;19.21;60.40;95845.41;5071352;28;20225;-68
2021/08/07 01:50:43;;;;;;;1.80;1.57;;;;;;;19.21;60.28;95848.06;5042211;28;20195;-67
2021/08/07 01:53:10;;;;;;;4.37;2.00;;;;;;;19.17;60.32;95856.50;5069328;28;20431;-67
2021/08/07 01:56:05;;;;;;;3.13;1.90;;;;;;;19.09;60.75;95856.91;5070353;28;20443;-67
2021/08/07 01:58:33;;;;;;;2.80;2.00;;;;;;;19.12;60.73;95851.13;5056551;28;20443;-68
2021/08/07 02:01:02;;;;;;;3.30;1.83;;;;;;;19.12;60.62;95848.47;5070972;28;20429;-68
2021/08/07 02:03:28;;;;;;;3.70;2.00;;;;;;;19.16;60.61;95859.41;5071673;28;20505;-69
2021/08/07 02:05:54;;;;;;;5.10;2.40;;;;;;;19.17;60.64;95855.72;5053481;28;20430;-68
2021/08/07 02:08:20;;;;;;;3.73;2.03;;;;;;;19.19;60.58;95861.59;5069560;28;20468;-70
2021/08/07 02:10:48;;;;;;;4.47;2.00;;;;;;;19.18;60.60;95850.16;5071452;28;20584;-65
2021/08/07 02:13:19;;;;;;;2.17;1.90;;;;;;;19.21;60.87;95848.06;5070711;28;20186;-68
2021/08/07 02:15:47;;;;;;;7.40;2.13;;;;;;;19.16;60.65;95856.75;5070952;28;20780;-69
2021/08/07 02:18:13;;;;;;;4.57;2.00;;;;;;;19.23;60.36;95853.94;5060615;28;20430;-70
2021/08/07 02:20:40;;;;;;;5.83;2.00;;;;;;;19.20;60.24;95847.28;5064483;28;21017;-68
2021/08/07 02:23:06;;;;;;;3.80;1.73;;;;;;;19.24;60.43;95853.69;5071026;28;20805;-68
2021/08/07 02:25:32;;;;;;;2.13;1.80;;;;;;;19.30;60.11;95850.09;5070386;28;20409;-69
2021/08/07 02:27:58;;;;;;;3.93;2.03;;;;;;;19.31;59.84;95843.72;5071486;28;20203;-68
2021/08/07 02:30:24;;;;;;;7.13;2.07;;;;;;;19.31;59.67;95842.91;5070690;28;20178;-69
2021/08/07 02:32:50;;;;;;;4.80;2.13;;;;;;;19.30;59.68;95841.28;5071476;28;20452;-68
2021/08/07 02:35:17;;;;;;;2.43;1.93;;;;;;;19.31;59.58;95837.59;5070282;28;20790;-68
2021/08/07 02:37:43;;;;;;;9.57;1.83;;;;;;;19.26;59.36;95835.66;5071200;28;20236;-68
2021/08/07 02:40:09;;;;;;;2.37;1.80;;;;;;;19.24;59.69;95836.97;5071902;28;20504;-69
2021/08/07 02:42:36;;;;;;;4.80;2.00;;;;;;;19.20;59.77;95836.66;5070900;28;20707;-69
2021/08/07 02:45:03;;;;;;;5.00;2.17;;;;;;;19.19;59.74;95829.72;5070375;28;20432;-68
2021/08/07 02:47:29;;;;;;;3.67;1.93;;;;;;;19.17;59.74;95845.88;5069041;28;20487;-68
2021/08/07 02:49:54;;;;;;;4.07;1.80;;;;;;;19.18;59.79;95836.06;5062993;28;20448;-69
2021/08/07 02:52:20;;;;;;;4.63;2.40;;;;;;;19.05;59.96;95831.88;5053676;28;20197;-69
2021/08/07 02:54:47;;;;;;;2.83;1.80;;;;;;;18.99;60.23;95822.22;5070504;28;20261;-68
2021/08/07 02:57:12;;;;;;;5.87;2.03;;;;;;;19.02;59.92;95822.53;5069786;28;20179;-68
2021/08/07 02:59:38;;;;;;;4.87;2.20;;;;;;;18.99;59.90;95822.22;5071272;28;20459;-67
2021/08/07 03:02:04;;;;;;;6.00;1.97;;;;;;;18.89;60.45;95820.16;5069796;28;20217;-68
2021/08/07 03:04:30;;;;;;;3.43;1.97;;;;;;;18.87;60.20;95817.75;5072210;28;20429;-70
2021/08/07 03:06:55;;;;;;;3.30;1.90;;;;;;;18.84;60.36;95809.44;5071033;28;20245;-68
2021/08/07 03:09:21;;;;;;;2.87;2.10;;;;;;;18.81;60.49;95813.38;5037498;28;20222;-68
2021/08/07 03:11:47;;;;;;;3.20;1.77;;;;;;;18.80;60.49;95801.16;5068253;28;20297;-68
2021/08/07 03:14:12;;;;;;;4.60;1.60;;;;;;;18.77;60.59;95811.44;5072778;28;20182;-68
2021/08/07 03:16:38;;;;;;;4.53;2.03;;;;;;;18.69;60.71;95810.81;5074572;28;20421;-68
2021/08/07 03:19:04;;;;;;;5.50;2.10;;;;;;;18.72;60.44;95809.50;5058228;28;20199;-67
2021/08/07 03:21:30;;;;;;;3.03;1.83;;;;;;;18.67;60.82;95820.03;5075057;28;20428;-68
2021/08/07 03:23:55;;;;;;;9.50;2.30;;;;;;;18.68;60.78;95819.81;5074430;28;20576;-68
2021/08/07 03:26:22;;;;;;;5.30;1.97;;;;;;;18.66;60.73;95821.88;5074577;28;20222;-70
2021/08/07 03:28:48;;;;;;;6.00;2.40;;;;;;;18.65;60.97;95822.13;5066505;28;20695;-67
2021/08/07 03:31:13;;;;;;;2.83;1.90;;;;;;;18.62;60.81;95814.66;5057310;28;20426;-68
2021/08/07 03:33:39;;;;;;;3.10;1.97;;;;;;;18.58;60.90;95811.66;5073262;28;20197;-68
2021/08/07 03:36:05;;;;;;;3.90;2.00;;;;;;;18.53;61.00;95815.00;5056714;28;20206;-68
2021/08/07 03:38:31;;;;;;;3.33;1.90;;;;;;;18.53;60.93;95807.03;5037253;28;20211;-69
2021/08/07 03:40:57;;;;;;;2.03;1.73;;;;;;;18.55;60.80;95804.19;5053504;28;20487;-67
2021/08/07 03:43:23;;;;;;;3.13;2.00;;;;;;;18.54;60.82;95790.09;5054012;28;20195;-68
2021/08/07 03:45:48;;;;;;;2.53;1.60;;;;;;;18.54;60.62;95784.00;5054402;28;20656;-67
2021/08/07 03:48:14;;;;;;;5.60;1.90;;;;;;;18.52;60.77;95796.69;5054008;28;20480;-68
2021/08/07 03:50:40;;;;;;;3.40;2.10;;;;;;;18.52;60.90;95797.50;5054304;28;20179;-68
2021/08/07 03:53:05;;;;;;;2.37;1.67;;;;;;;18.54;60.62;95789.28;5060959;28;20182;-69
2021/08/07 03:55:31;;;;;;;3.63;1.83;;;;;;;18.52;60.54;95781.59;5053492;28;20182;-67
2021/08/07 03:57:59;;;;;;;5.43;1.83;;;;;;;18.51;60.53;95776.50;5053601;28;20206;-66
2021/08/07 04:00:26;;;;;;;3.17;1.80;;;;;;;18.51;60.60;95776.50;5063348;28;20602;-70
2021/08/07 04:02:52;;;;;;;4.93;2.30;;;;;;;18.48;60.58;95787.59;5061409;28;20515;-68
2021/08/07 04:05:18;;;;;;;2.90;1.70;;;;;;;18.49;60.22;95782.06;5063886;28;20467;-68
2021/08/07 04:07:44;;;;;;;4.93;2.50;;;;;;;18.47;60.48;95776.19;5054975;28;20219;-68
2021/08/07 04:10:10;;;;;;;2.80;1.90;;;;;;;18.47;60.27;95781.47;5055082;28;20225;-70
2021/08/07 04:12:36;;;;;;;3.10;1.70;;;;;;;18.45;60.43;95780.91;5053434;28;20203;-70
2021/08/07 04:15:02;;;;;;;4.40;2.00;;;;;;;18.47;60.41;95776.19;5054256;28;20749;-67
2021/08/07 04:17:28;;;;;;;4.70;1.93;;;;;;;18.49;60.52;95783.88;5045240;28;20491;-68
2021/08/07 04:19:54;;;;;;;2.20;1.70;;;;;;;18.46;60.46;95777.22;5044444;28;20414;-67
2021/08/07 04:22:20;;;;;;;4.37;2.13;;;;;;;18.46;60.70;95784.38;5052870;28;20424;-69
2021/08/07 04:24:45;;;;;;;4.60;2.00;;;;;;;18.46;60.84;95781.72;5052610;28;20209;-68
2021/08/07 04:27:12;;;;;;;5.20;2.17;;;;;;;18.48;60.32;95780.44;5052941;28;20817;-67
2021/08/07 04:29:38;;;;;;;5.23;2.20;;;;;;;18.52;60.50;95778.13;5052233;28;20214;-68
2021/08/07 04:32:04;;;;;;;2.20;1.70;;;;;;;18.56;60.35;95774.75;5052359;28;20512;-68
2021/08/07 04:34:29;;;;;;;3.70;2.10;;;;;;;18.58;60.45;95763.91;5051295;28;20343;-68
2021/08/07 04:36:55;;;;;;;3.40;2.10;;;;;;;18.55;60.77;95757.22;5052948;28;20292;-67
2021/08/07 04:39:21;;;;;;;3.60;2.10;;;;;;;18.60;60.50;95756.50;5052690;28;20217;-69
2021/08/07 04:41:47;;;;;;;3.50;1.90;;;;;;;18.57;60.55;95752.47;5052787;28;20426;-67
2021/08/07 04:44:12;;;;;;;4.47;2.00;;;;;;;18.60;60.67;95743.25;5052226;28;20424;-67
2021/08/07 04:46:38;;;;;;;3.23;2.20;;;;;;;18.66;60.71;95752.09;5050923;28;20185;-67
2021/08/07 04:49:04;;;;;;;4.80;2.10;;;;;;;18.71;60.31;95763.59;5060074;28;20210;-69
2021/08/07 04:51:29;;;;;;;3.10;1.73;;;;;;;18.78;59.86;95768.75;5052392;28;20179;-68
2021/08/07 04:53:55;;;;;;;3.50;2.00;;;;;;;18.82;59.96;95772.53;5052035;28;20175;-70
2021/08/07 04:56:20;;;;;;;5.10;2.13;;;;;;;18.84;60.01;95769.63;5052178;28;20280;-68
2021/08/07 04:58:46;;;;;;;1.90;1.77;;;;;;;18.82;60.00;95772.53;5051351;28;20305;-67
2021/08/07 05:01:12;;;;;;;2.23;1.83;;;;;;;18.84;59.77;95762.50;5052395;28;20213;-68
2021/08/07 05:03:37;;;;;;;2.23;1.93;;;;;;;18.94;59.81;95774.34;5052059;28;20179;-69
2021/08/07 05:06:03;;;;;;;3.27;1.73;;;;;;;19.08;59.51;95782.81;5051551;28;20183;-68
2021/08/07 05:08:28;;;;;;;3.23;2.00;;;;;;;19.15;59.22;95770.97;5053278;28;20206;-67
2021/08/07 05:10:56;;;;;;;3.43;1.60;;;;;;;19.21;58.95;95774.53;5050968;28;20596;-68
2021/08/07 05:13:21;;;;;;;4.20;1.73;;;;;;;19.25;58.94;95780.16;5051808;28;20187;-67
2021/08/07 05:15:47;;;;;;;4.70;2.00;;;;;;;19.31;58.46;95769.38;5052053;28;20421;-67
2021/08/07 05:18:13;;;;;;;4.33;1.50;;;;;;;19.03;58.02;95768.41;5065989;28;20194;-67
2021/08/07 05:20:38;;;;;;;7.73;1.67;;;;;;;19.16;57.78;95761.97;5053383;28;20596;-69
2021/08/07 05:23:04;;;;;;;7.10;1.80;;;;;;;19.11;57.52;95753.94;5051745;28;20583;-68
2021/08/07 05:25:29;;;;;;;7.43;2.20;;;;;;;19.46;56.79;95744.88;5050683;28;20210;-68
2021/08/07 05:27:55;;;;;;;4.70;1.87;;;;;;;19.59;56.20;95742.91;5052208;28;20686;-67
2021/08/07 05:30:21;;;;;;;1.57;1.20;;;;;;;19.64;55.93;95743.78;5053785;28;20313;-68
2021/08/07 05:32:47;;;;;;;1.60;1.40;;;;;;;19.79;55.89;95747.69;5030234;28;20187;-67
2021/08/07 05:35:12;;;;;;;6.60;1.80;;;;;;;19.93;55.62;95748.16;5047756;28;20440;-67
2021/08/07 05:37:40;;;;;;;4.30;1.80;;;;;;;20.13;55.59;95744.13;5050329;28;20349;-68
2021/08/07 05:40:07;;;;;;;3.03;1.60;;;;;;;20.26;54.83;95743.75;5039037;28;20290;-70
2021/08/07 05:42:33;;;;;;;1.90;1.67;;;;;;;20.35;54.74;95744.13;5051441;28;20516;-67
2021/08/07 05:44:58;;;;;;;3.53;1.50;;;;;;;20.48;54.03;95750.88;5050086;28;20549;-69
2021/08/07 05:47:24;;;;;;;3.63;1.70;;;;;;;20.65;54.49;95764.91;5043589;28;20182;-68
2021/08/07 05:49:49;;;;;;;2.70;1.60;;;;;;;20.78;52.74;95749.59;5070125;28;20186;-67
2021/08/07 05:52:15;;;;;;;2.50;1.40;;;;;;;20.79;52.91;95761.84;5067904;28;20214;-67
2021/08/07 05:54:40;;;;;;;2.23;1.30;;;;;;;21.44;51.09;95769.78;5070299;28;20182;-67
2021/08/07 05:57:06;;;;;;;2.90;1.60;;;;;;;21.66;50.34;95776.91;5071389;28;20720;-70
2021/08/07 05:59:32;;;;;;;2.80;1.53;;;;;;;21.57;49.87;95771.22;5071282;28;20235;-67
2021/08/07 06:01:57;;;;;;;4.10;1.40;;;;;;;21.49;50.12;95777.81;5071105;28;20182;-69
2021/08/07 06:04:23;;;;;;;4.73;1.83;;;;;;;21.32;50.65;95767.31;5069915;28;20186;-68
2021/08/07 06:06:49;;;;;;;2.20;1.53;;;;;;;21.44;50.59;95769.78;5070855;28;20178;-69
2021/08/07 06:09:14;;;;;;;5.03;1.77;;;;;;;21.53;50.21;95764.78;5070960;28;20517;-66
2021/08/07 06:11:40;;;;;;;4.00;1.40;;;;;;;21.71;50.25;95763.56;5071198;28;20174;-67
2021/08/07 06:14:05;;;;;;;2.53;1.63;;;;;;;21.74;49.92;95765.72;5069671;28;20514;-68
2021/08/07 06:16:31;;;;;;;4.07;1.20;;;;;;;21.61;50.36;95765.13;5062658;28;20180;-67
2021/08/07 06:18:57;;;;;;;1.93;1.30;;;;;;;21.84;49.83;95765.78;5055224;28;20571;-67
2021/08/07 06:21:23;;;;;;;1.93;1.40;;;;;;;21.83;50.11;95748.19;5059496;28;20197;-67
2021/08/07 06:23:48;;;;;;;2.10;1.60;;;;;;;21.75;50.44;95754.00;5070725;28;20339;-68
2021/08/07 06:26:14;;;;;;;1.40;1.30;;;;;;;21.81;50.41;95752.97;5062600;28;20599;-68
2021/08/07 06:28:40;;;;;;;1.57;1.20;;;;;;;22.07;49.58;95740.56;5070841;28;20297;-69
2021/08/07 06:31:06;;;;;;;4.70;1.50;;;;;;;22.40;48.90;95733.16;5070298;28;20971;-69
2021/08/07 06:33:32;;;;;;;6.03;1.53;;;;;;;22.78;47.72;95742.84;5068929;28;20179;-67
2021/08/07 06:36:01;;;;;;;3.60;1.80;;;;;;;23.07;46.93;95739.66;5070834;28;20852;-68
2021/08/07 06:38:26;;;;;;;1.77;1.27;;;;;;;23.27;46.16;95731.63;5070057;28;20472;-70
2021/08/07 06:40:52;;;;;;;1.87;1.13;;;;;;;23.63;45.40;95736.13;5070801;28;20483;-65
2021/08/07 06:43:19;;;;;;;3.90;1.20;;;;;;;23.56;45.54;95740.97;5069225;28;20186;-67
2021/08/07 06:45:45;;;;;;;4.03;2.47;;;;;;;23.35;46.29;95743.66;5072337;28;20452;-68
2021/08/07 06:48:11;;;;;;;8.20;2.27;;;;;;;23.51;46.25;95743.63;5056745;28;20459;-68
2021/08/07 06:50:37;;;;;;;3.73;1.20;;;;;;;23.49;45.51;95735.09;5074118;28;20504;-70
2021/08/07 06:53:03;;;;;;;44.63;16.30;;;;;;;23.43;46.65;95737.78;5075051;28;20182;-67
2021/08/07 06:55:29;;;;;;;2.40;1.50;;;;;;;23.14;46.57;95727.63;5066896;28;20491;-67
2021/08/07 06:57:54;;;;;;;2.60;1.80;;;;;;;23.22;47.04;95717.50;5074874;28;20273;-67
2021/08/07 07:00:20;;;;;;;23.60;11.47;;;;;;;23.57;46.94;95715.81;5074234;28;20186;-69
2021/08/07 07:02:46;;;;;;;72.57;29.73;;;;;;;23.43;46.64;95721.75;5074808;28;20244;-68
2021/08/07 07:05:11;;;;;;;5.73;2.37;;;;;;;23.77;45.26;95737.16;5073387;28;20194;-68
2021/08/07 07:07:38;;;;;;;1.30;1.20;;;;;;;23.66;45.21;95748.94;5073854;28;20198;-69
2021/08/07 07:10:11;;;;;;;1.73;1.10;;;;;;;23.47;45.43;95751.41;5075195;28;20533;-69
2021/08/07 07:12:37;;;;;;;15.73;6.60;;;;;;;23.91;45.02;95744.59;5073713;28;20431;-69
2021/08/07 07:15:04;;;;;;;2.10;1.47;;;;;;;24.28;43.77;95747.91;5074510;28;20420;-66
2021/08/07 07:17:30;;;;;;;2.43;1.17;;;;;;;24.00;44.20;95756.34;5057854;28;20470;-68
2021/08/07 07:19:56;;;;;;;1.83;1.40;;;;;;;24.11;43.52;95759.78;5067013;28;20420;-67
2021/08/07 07:22:22;;;;;;;8.97;2.40;;;;;;;24.11;44.21;95757.13;5075231;28;20179;-67
2021/08/07 07:24:48;;;;;;;2.50;1.53;;;;;;;24.16;43.68;95751.72;5073418;28;20440;-69
2021/08/07 07:27:13;;;;;;;4.57;2.27;;;;;;;23.74;44.13;95761.75;5057837;28;20192;-66
2021/08/07 07:29:40;;;;;;;3.23;1.70;;;;;;;23.87;43.57;95762.25;5073922;28;20206;-68
2021/08/07 07:32:08;;;;;;;2.80;1.57;;;;;;;23.74;44.01;95756.41;5074042;28;20182;-69
2021/08/07 07:34:38;;;;;;;2.90;1.30;;;;;;;23.51;44.89;95743.63;5072764;28;20425;-69
2021/08/07 07:37:04;;;;;;;3.30;1.57;;;;;;;23.97;43.78;95743.50;5073633;28;20440;-67
2021/08/07 07:39:30;;;;;;;4.07;1.43;;;;;;;23.87;44.80;95740.84;5071218;28;20441;-69
2021/08/07 07:41:56;;;;;;;2.70;1.20;;;;;;;24.12;44.34;95740.00;5070784;28;20421;-69
2021/08/07 07:44:22;;;;;;;17.20;9.30;;;;;;;24.29;43.83;95746.84;5053863;28;20178;-68
2021/08/07 07:46:47;;;;;;;3.80;1.30;;;;;;;24.01;44.19;95743.75;5059935;28;20180;-68
2021/08/07 07:49:13;;;;;;;4.80;1.70;;;;;;;24.16;43.85;95745.59;5068571;28;20214;-68
2021/08/07 07:51:38;;;;;;;3.60;1.50;;;;;;;24.38;43.26;95745.22;5068396;28;20220;-70
2021/08/07 07:54:04;;;;;;;2.37;1.20;;;;;;;24.49;43.31;95745.94;5071233;28;20188;-68
2021/08/07 07:56:30;;;;;;;2.13;1.13;;;;;;;24.90;42.60;95745.69;5070720;28;20170;-66
2021/08/07 07:58:56;;;;;;;3.57;1.57;;;;;;;25.28;42.15;95745.91;5070788;28;20202;-68
2021/08/07 08:01:21;;;;;;;2.37;1.30;;;;;;;25.06;42.53;95732.97;5070665;28;20429;-68
2021/08/07 08:03:47;;;;;;;2.33;1.60;;;;;;;24.70;43.67;95725.22;5072093;28;20189;-69
2021/08/07 08:06:13;;;;;;;2.20;1.37;;;;;;;24.82;43.63;95711.47;5072002;28;20190;-65
2021/08/07 08:08:38;;;;;;;4.33;1.30;;;;;;;25.22;43.13;95701.44;5071567;28;20206;-67
2021/08/07 08:11:04;;;;;;;70.57;29.40;;;;;;;25.36;42.68;95701.59;5071492;28;20178;-68
2021/08/07 08:13:29;;;;;;;1.80;1.20;;;;;;;25.35;42.28;95689.28;5070916;28;20280;-68
2021/08/07 08:15:55;;;;;;;3.10;1.83;;;;;;;25.47;41.64;95688.91;5055697;28;20188;-67
2021/08/07 08:18:21;;;;;;;1.67;1.17;;;;;;;25.35;41.16;95685.78;5059799;28;20553;-68
2021/08/07 08:20:46;;;;;;;7.43;1.20;;;;;;;25.26;41.52;95689.09;5064826;28;20269;-67
2021/08/07 08:23:12;;;;;;;3.27;1.30;;;;;;;25.50;41.53;95688.34;5071766;28;20185;-67
2021/08/07 08:25:37;;;;;;;4.70;1.40;;;;;;;25.61;41.09;95695.19;5071790;28;20183;-67
2021/08/07 08:28:04;;;;;;;2.73;1.27;;;;;;;24.83;42.86;95696.97;5071328;28;20199;-66
2021/08/07 08:30:30;;;;;;;6.17;1.30;;;;;;;24.89;42.91;95698.53;5071546;28;20269;-68
2021/08/07 08:32:56;;;;;;;3.83;1.30;;;;;;;24.94;43.43;95695.84;5070461;28;21253;-67
2021/08/07 08:35:22;;;;;;;2.47;1.57;;;;;;;25.40;43.15;95683.06;5071231;28;20179;-67
2021/08/07 08:37:47;;;;;;;1.87;1.40;;;;;;;25.49;42.19;95680.59;5031910;28;1117506;-67
2021/08/07 08:40:13;;;;;;;3.33;1.90;;;;;;;25.44;42.40;95678.75;5071111;28;20197;-68
2021/08/07 08:42:41;;;;;;;2.10;1.43;;;;;;;25.41;40.87;95674.75;5056204;28;20201;-68
2021/08/07 08:45:07;;;;;;;5.37;1.37;;;;;;;25.25;40.71;95676.78;5070534;28;20171;-68
2021/08/07 08:47:35;;;;;;;4.10;1.20;;;;;;;25.38;40.61;95678.00;5053760;28;20456;-68
2021/08/07 08:50:01;;;;;;;1.70;1.40;;;;;;;24.63;41.91;95688.00;5072168;28;20427;-66
2021/08/07 08:52:29;;;;;;;3.00;1.57;;;;;;;24.98;41.98;95685.34;5071984;28;20420;-67
2021/08/07 08:54:55;;;;;;;2.33;1.30;;;;;;;25.11;41.79;95678.50;5071411;28;20226;-67
2021/08/07 08:57:21;;;;;;;1.67;1.13;;;;;;;25.12;41.84;95677.44;5071696;28;20447;-67
2021/08/07 08:59:47;;;;;;;2.80;1.40;;;;;;;24.75;42.09;95673.47;5071829;28;20167;-68
2021/08/07 09:02:13;;;;;;;1.87;1.33;;;;;;;24.75;42.90;95678.84;5070474;28;20513;-67
2021/08/07 09:04:38;;;;;;;2.70;1.37;;;;;;;24.90;42.41;95672.53;5071758;28;20190;-68
2021/08/07 09:07:04;;;;;;;3.40;1.30;;;;;;;24.87;42.24;95675.81;5063449;28;20236;-66
2021/08/07 09:10:02;;;;;;;4.70;1.60;;;;;;;24.97;42.77;95681.84;5071548;28;20214;-67
2021/08/07 09:12:38;;;;;;;2.00;1.53;;;;;;;24.80;42.60;95686.84;5041388;28;20257;-67
2021/08/07 09:15:04;;;;;;;4.40;1.53;;;;;;;24.95;42.32;95683.22;5031836;28;20515;-67
2021/08/07 09:17:30;;;;;;;6.17;1.50;;;;;;;25.09;42.17;95683.34;5033167;28;20426;-68
2021/08/07 09:19:58;;;;;;;4.70;1.40;;;;;;;25.42;41.68;95683.59;5034551;28;20496;-66
2021/08/07 09:22:34;;;;;;;3.60;1.77;;;;;;;25.49;41.68;95680.59;5045067;28;20307;-68
2021/08/07 09:25:02;;;;;;;8.93;1.30;;;;;;;25.68;41.42;95691.38;5036632;28;20810;-67
2021/08/07 09:27:37;;;;;;;1.60;1.33;;;;;;;25.69;41.22;95679.56;5033132;28;20425;-68
2021/08/07 09:30:17;;;;;;;3.50;1.33;;;;;;;25.53;41.30;95690.44;5049162;28;20464;-69
2021/08/07 09:32:56;;;;;;;3.83;1.43;;;;;;;25.67;41.54;95690.56;5049112;28;20418;-68
2021/08/07 09:35:26;;;;;;;2.77;1.43;;;;;;;25.13;42.17;95687.06;5032685;28;20520;-70
2021/08/07 09:38:30;;;;;;;3.03;1.50;;;;;;;25.12;42.29;95690.84;5049612;28;20465;-68
2021/08/07 09:41:00;;;;;;;3.93;3.00;;;;;;;25.24;41.72;95696.63;5045193;28;20532;-69
2021/08/07 09:43:28;;;;;;;5.53;3.90;;;;;;;25.27;42.97;95696.06;5025851;28;20540;-68
2021/08/07 09:46:07;;;;;;;2.70;1.70;;;;;;;25.06;43.50;95700.03;5049451;28;20433;-68
2021/08/07 09:48:38;;;;;;;2.40;1.70;;;;;;;25.06;44.29;95716.09;5049814;28;20472;-70
2021/08/07 09:51:23;;;;;;;2.77;1.70;;;;;;;24.83;44.85;95729.13;5070696;28;20420;-68
2021/08/07 09:54:08;;;;;;;4.50;1.93;;;;;;;24.90;45.31;95739.50;5064812;28;20429;-68
2021/08/07 09:57:01;;;;;;;2.73;1.90;;;;;;;24.31;48.02;95753.53;5056613;28;20424;-67
2021/08/07 09:59:29;;;;;;;6.90;2.67;;;;;;;24.33;49.23;95759.41;5050727;28;20441;-68
2021/08/07 10:01:56;;;;;;;4.17;2.10;;;;;;;24.08;50.66;95758.44;5069635;28;20424;-69
2021/08/07 10:04:22;;;;;;;5.07;2.00;;;;;;;24.10;51.49;95760.88;5069814;28;20421;-68
2021/08/07 10:06:50;;;;;;;4.80;1.77;;;;;;;23.07;54.15;95767.16;5071642;28;20424;-67
2021/08/07 10:09:32;;;;;;;3.57;1.73;;;;;;;22.45;56.02;95747.63;5069760;28;21234;-68
2021/08/07 10:12:06;;;;;;;3.40;2.07;;;;;;;22.18;57.16;95737.91;5071056;28;20416;-67
2021/08/07 10:14:33;;;;;;;3.67;2.37;;;;;;;22.61;55.77;95732.44;5055962;28;20566;-69
2021/08/07 10:16:59;;;;;;;7.70;2.93;;;;;;;22.89;55.76;95707.06;5055297;28;20418;-67
2021/08/07 10:19:26;;;;;;;3.07;2.00;;;;;;;22.99;54.89;95716.94;5061743;28;20469;-69
2021/08/07 10:21:51;;;;;;;4.97;2.10;;;;;;;22.74;53.65;95721.22;5070093;28;20785;-69
2021/08/07 10:24:19;;;;;;;4.87;2.23;;;;;;;22.69;55.20;95726.56;5068622;28;20424;-68
2021/08/07 10:26:46;;;;;;;8.10;4.17;;;;;;;22.37;56.49;95730.22;5062991;28;20174;-69
2021/08/07 10:29:12;;;;;;;5.07;2.80;;;;;;;22.43;56.43;95720.38;5054321;28;21046;-68
2021/08/07 10:31:38;;;;;;;7.10;3.47;;;;;;;22.58;56.62;95712.41;5072700;28;20428;-67
2021/08/07 10:34:05;;;;;;;36.00;13.03;;;;;;;22.59;57.80;95707.84;5071960;28;20922;-69
2021/08/07 10:36:33;;;;;;;3.60;1.90;;;;;;;22.29;57.63;95709.41;5073238;28;20178;-66
2021/08/07 10:39:01;;;;;;;7.80;5.83;;;;;;;22.38;58.19;95703.25;5056908;28;20444;-67
2021/08/07 10:41:28;;;;;;;7.37;4.07;;;;;;;22.22;59.20;95697.09;5064076;28;20428;-67
2021/08/07 10:43:55;;;;;;;16.43;7.83;;;;;;;22.33;59.03;95702.44;5071326;28;20405;-66
2021/08/07 10:46:21;;;;;;;7.67;2.97;;;;;;;22.35;58.91;95711.81;5067309;28;20461;-69
2021/08/07 10:48:48;;;;;;;5.70;3.30;;;;;;;22.32;59.28;95708.84;5059703;28;21031;-70
2021/08/07 10:51:22;;;;;;;9.93;4.37;;;;;;;22.34;60.02;95706.72;5071925;28;20186;-68
2021/08/07 10:53:49;;;;;;;5.97;2.83;;;;;;;22.23;60.42;95717.38;5072875;28;20494;-68
2021/08/07 10:56:26;;;;;;;9.23;2.50;;;;;;;22.13;61.72;95717.38;5073708;28;20833;-68
2021/08/07 10:58:52;;;;;;;14.90;6.27;;;;;;;22.05;62.36;95710.66;5071841;28;20953;-69
2021/08/07 11:01:24;;;;;;;4.53;2.73;;;;;;;22.03;61.98;95709.34;5070300;28;20457;-67
2021/08/07 11:03:51;;;;;;;15.17;6.60;;;;;;;22.02;62.00;95705.06;5072601;28;20265;-67
2021/08/07 11:06:17;;;;;;;16.63;6.50;;;;;;;21.93;62.28;95707.44;5071285;28;20449;-68
2021/08/07 11:08:43;;;;;;;7.43;3.00;;;;;;;21.86;62.35;95709.53;5072225;28;20453;-67
2021/08/07 11:11:29;;;;;;;11.33;3.30;;;;;;;21.79;62.65;95702.56;5063469;28;20817;-70
2021/08/07 11:14:26;;;;;;;15.77;7.53;;;;;;;21.88;63.02;95710.88;5070236;28;20941;-68
2021/08/07 11:17:07;;;;;;;23.03;10.57;;;;;;;21.90;62.99;95707.94;5056944;28;20450;-69
2021/08/07 11:20:00;;;;;;;6.83;3.20;;;;;;;21.57;63.78;95712.59;5043736;28;20429;-69
2021/08/07 11:22:31;;;;;;;4.73;2.90;;;;;;;21.54;64.44;95732.56;5069049;28;20931;-69
2021/08/07 11:25:04;;;;;;;7.87;4.50;;;;;;;21.58;64.58;95728.31;5071221;28;20501;-68
2021/08/07 11:27:52;;;;;;;6.30;3.60;;;;;;;21.61;64.61;95749.16;5055848;28;20420;-70
2021/08/07 11:30:33;;;;;;;4.20;3.37;;;;;;;21.71;65.43;95744.91;5071481;28;20514;-69
2021/08/07 11:33:00;;;;;;;4.20;2.80;;;;;;;21.49;64.90;95746.63;5072552;28;20429;-66
2021/08/07 11:35:38;;;;;;;3.40;2.80;;;;;;;21.45;65.93;95750.91;5073241;28;20443;-69